Time;durP1;ratioP1;P1;durP2;ratioP2;P2;SDS_P1;SDS_P2;PMS_P1;PMS_P2;Temp;Humidity;BMP_temperature;BMP_pressure;BME280_temperature;BME280_humidity;BME280_pressure;Samples;Min_cycle;Max_cycle;Signal;HPM_P1;HPM_P2
2021/05/10 00:01:25;;;;;;;3.13;2.87;;;18.40;1.00;;;;;;5105102;27;20478;-77
2021/05/10 00:03:51;;;;;;;5.87;3.10;;;18.30;1.00;;;;;;5101709;27;20473;-77
2021/05/10 00:06:18;;;;;;;3.37;2.77;;;18.30;1.00;;;;;;5098272;27;20476;-78
2021/05/10 00:08:46;;;;;;;5.17;3.00;;;18.20;1.00;;;;;;5097982;27;23317;-78
2021/05/10 00:11:13;;;;;;;3.53;3.10;;;18.10;1.00;;;;;;5104221;27;20469;-77
2021/05/10 00:13:43;;;;;;;3.33;3.03;;;18.00;1.00;;;;;;5100721;27;20593;-77
2021/05/10 00:16:09;;;;;;;3.53;3.20;;;18.00;1.00;;;;;;5102016;27;20507;-77
2021/05/10 00:18:36;;;;;;;3.40;3.10;;;17.90;1.00;;;;;;5093695;27;20553;-78
2021/05/10 00:21:04;;;;;;;3.50;3.20;;;17.90;1.00;;;;;;5099373;27;20480;-78
2021/05/10 00:23:31;;;;;;;3.53;3.23;;;17.80;1.00;;;;;;5100733;27;21357;-78
2021/05/10 00:25:57;;;;;;;3.73;3.43;;;17.80;1.00;;;;;;5093611;27;21904;-77
2021/05/10 00:32:04;;;;;;;3.00;2.80;;;17.60;1.00;;;;;;5098751;27;20464;-77
2021/05/10 00:38:12;;;;;;;3.00;2.80;;;17.50;1.00;;;;;;5100032;27;21639;-78
2021/05/10 00:40:39;;;;;;;3.30;3.00;;;17.40;1.00;;;;;;5114703;27;21257;-78
2021/05/10 00:43:06;;;;;;;2.90;2.70;;;17.40;1.00;;;;;;5106762;27;20490;-77
2021/05/10 00:45:33;;;;;;;3.20;3.00;;;17.30;1.00;;;;;;5108349;27;20456;-78
2021/05/10 00:47:59;;;;;;;3.40;3.20;;;17.30;1.00;;;;;;5115745;27;20471;-78
2021/05/10 00:50:26;;;;;;;3.53;2.70;;;17.30;1.00;;;;;;5111210;27;21009;-77
2021/05/10 00:52:52;;;;;;;6.20;3.10;;;17.20;1.00;;;;;;5117061;27;20438;-77
2021/05/10 00:55:19;;;;;;;2.97;2.77;;;17.20;1.00;;;;;;5120716;27;20941;-77
2021/05/10 00:57:50;;;;;;;2.60;2.40;;;17.10;1.00;;;;;;5122676;27;20440;-78
2021/05/10 01:00:18;;;;;;;2.90;2.70;;;17.20;1.00;;;;;;5113218;27;21208;-78
2021/05/10 01:02:45;;;;;;;3.57;2.63;;;17.10;1.00;;;;;;5114495;27;20462;-78
2021/05/10 01:05:12;;;;;;;3.20;2.90;;;17.20;1.00;;;;;;5124667;27;20491;-77
2021/05/10 01:07:39;;;;;;;2.80;2.50;;;17.10;1.00;;;;;;5118406;27;20448;-78
2021/05/10 01:10:09;;;;;;;3.03;2.37;;;17.10;1.00;;;;;;5118191;27;20523;-78
2021/05/10 01:12:36;;;;;;;2.90;2.70;;;17.10;1.00;;;;;;5113633;27;20512;-77
2021/05/10 01:15:06;;;;;;;4.53;2.50;;;17.10;1.00;;;;;;5113672;27;20574;-78
2021/05/10 01:17:33;;;;;;;2.77;2.53;;;17.10;1.00;;;;;;5124164;27;20973;-77
2021/05/10 01:20:00;;;;;;;3.20;2.50;;;17.00;1.00;;;;;;5111685;27;20448;-77
2021/05/10 01:22:34;;;;;;;3.30;2.60;;;17.00;1.00;;;;;;5118429;27;20458;-78
2021/05/10 01:25:01;;;;;;;3.33;2.80;;;16.90;1.00;;;;;;5114979;27;20970;-77
2021/05/10 01:27:27;;;;;;;3.17;2.87;;;16.90;1.00;;;;;;5116924;27;20634;-77
2021/05/10 01:29:54;;;;;;;13.97;3.53;;;16.90;1.00;;;;;;5115614;27;20594;-76
2021/05/10 01:32:20;;;;;;;3.83;3.40;;;16.80;1.00;;;;;;5112934;27;20496;-77
2021/05/10 01:34:46;;;;;;;2.97;2.70;;;16.80;1.00;;;;;;5112772;27;20490;-80
2021/05/10 01:37:12;;;;;;;2.87;2.60;;;16.80;1.00;;;;;;5122249;27;20528;-77
2021/05/10 01:39:40;;;;;;;2.60;2.37;;;16.70;1.00;;;;;;5116940;27;20554;-77
2021/05/10 01:42:07;;;;;;;2.93;2.73;;;16.70;1.00;;;;;;5117708;27;20415;-77
2021/05/10 01:44:33;;;;;;;2.93;2.73;;;16.70;1.00;;;;;;5120423;27;20467;-77
2021/05/10 01:46:59;;;;;;;2.53;2.33;;;16.60;1.00;;;;;;5122399;27;20547;-78
2021/05/10 01:49:25;;;;;;;3.20;2.90;;;16.60;1.00;;;;;;5121739;27;20453;-77
2021/05/10 01:51:52;;;;;;;2.90;2.70;;;16.50;1.00;;;;;;5118862;27;20495;-77
2021/05/10 01:54:19;;;;;;;7.13;3.40;;;16.50;1.00;;;;;;5117326;27;21136;-77
2021/05/10 01:56:47;;;;;;;3.70;2.50;;;16.40;1.00;;;;;;5117983;27;21386;-77
2021/05/10 01:59:13;;;;;;;4.60;3.07;;;16.30;1.00;;;;;;5120073;27;20478;-76
2021/05/10 02:01:39;;;;;;;3.47;3.17;;;16.20;1.00;;;;;;5117469;27;20453;-77
2021/05/10 02:04:06;;;;;;;5.13;2.87;;;16.10;1.00;;;;;;5118212;27;20447;-78
2021/05/10 02:06:32;;;;;;;2.90;2.70;;;16.10;1.00;;;;;;5124276;27;20429;-78
2021/05/10 02:08:58;;;;;;;4.03;2.90;;;16.10;1.00;;;;;;5118653;27;20461;-78
2021/05/10 02:11:24;;;;;;;2.87;2.53;;;16.10;1.00;;;;;;5125696;27;20924;-78
2021/05/10 02:13:51;;;;;;;3.73;3.00;;;16.10;1.00;;;;;;5123600;27;20511;-77
2021/05/10 02:16:17;;;;;;;2.53;2.33;;;16.00;1.00;;;;;;5120588;27;20411;-77
2021/05/10 02:18:44;;;;;;;2.87;2.67;;;16.00;1.00;;;;;;5120874;27;20458;-77
2021/05/10 02:21:10;;;;;;;3.63;2.70;;;16.00;1.00;;;;;;5123617;27;20455;-77
2021/05/10 02:23:37;;;;;;;4.30;2.90;;;15.90;1.00;;;;;;5112502;27;20518;-77
2021/05/10 02:26:05;;;;;;;3.67;2.80;;;15.90;1.00;;;;;;5118230;27;20528;-78
2021/05/10 02:28:33;;;;;;;4.27;2.60;;;15.80;1.00;;;;;;5123587;27;20453;-78
2021/05/10 02:31:01;;;;;;;3.43;2.70;;;15.80;1.00;;;;;;5133886;27;20549;-78
2021/05/10 02:33:29;;;;;;;5.80;3.80;;;15.80;1.00;;;;;;5115128;27;20468;-77
2021/05/10 02:35:56;;;;;;;3.10;2.80;;;15.70;1.00;;;;;;5115906;27;23062;-77
2021/05/10 02:38:23;;;;;;;5.43;3.23;;;15.70;1.00;;;;;;5117454;27;20452;-77
2021/05/10 02:40:49;;;;;;;3.43;3.10;;;15.60;1.00;;;;;;5114487;27;20437;-77
2021/05/10 02:43:16;;;;;;;2.97;2.53;;;15.60;1.00;;;;;;5114613;27;20447;-77
2021/05/10 02:45:42;;;;;;;5.70;2.97;;;15.60;1.00;;;;;;5122796;27;20545;-77
2021/05/10 02:48:11;;;;;;;3.93;2.80;;;15.60;1.00;;;;;;5132325;27;20447;-77
2021/05/10 02:50:37;;;;;;;7.30;4.37;;;15.60;1.00;;;;;;5118175;27;20498;-77
2021/05/10 02:53:03;;;;;;;8.10;3.80;;;15.50;1.00;;;;;;5111831;27;20522;-77
2021/05/10 02:55:30;;;;;;;6.23;3.37;;;15.40;1.00;;;;;;5115027;27;20449;-78
2021/05/10 02:57:56;;;;;;;3.70;2.80;;;15.50;1.00;;;;;;5114851;27;20446;-78
2021/05/10 03:00:24;;;;;;;6.27;3.53;;;15.40;1.00;;;;;;5113572;27;21261;-78
2021/05/10 03:02:51;;;;;;;3.37;2.80;;;15.30;1.00;;;;;;5119384;27;20488;-77
2021/05/10 03:05:19;;;;;;;7.00;3.00;;;15.20;1.00;;;;;;5123493;27;20542;-78
2021/05/10 03:07:46;;;;;;;4.37;3.17;;;15.20;1.00;;;;;;5123639;27;20472;-78
2021/05/10 03:10:14;;;;;;;8.10;4.37;;;15.20;1.00;;;;;;5127908;27;20473;-79
2021/05/10 03:12:41;;;;;;;4.60;2.70;;;15.20;1.00;;;;;;5121561;27;20438;-76
2021/05/10 03:15:09;;;;;;;6.30;3.27;;;15.20;1.00;;;;;;5112335;27;20547;-77
2021/05/10 03:17:36;;;;;;;4.27;3.70;;;15.10;1.00;;;;;;5124628;27;21360;-78
2021/05/10 03:20:04;;;;;;;5.27;3.10;;;15.10;1.00;;;;;;5117139;27;20564;-77
2021/05/10 03:22:31;;;;;;;3.40;2.77;;;15.10;1.00;;;;;;5128972;27;20438;-77
2021/05/10 03:24:58;;;;;;;3.63;2.63;;;15.10;1.00;;;;;;5116823;27;20561;-78
2021/05/10 03:27:24;;;;;;;5.73;3.17;;;15.10;1.00;;;;;;5117432;27;20457;-78
2021/05/10 03:29:50;;;;;;;5.57;3.27;;;15.10;1.00;;;;;;5123893;27;20445;-77
2021/05/10 03:32:17;;;;;;;7.53;3.57;;;15.10;1.00;;;;;;5115178;27;20494;-76
2021/05/10 03:34:43;;;;;;;2.57;2.37;;;15.10;1.00;;;;;;5114038;27;20506;-76
2021/05/10 03:37:09;;;;;;;3.30;2.70;;;15.10;1.00;;;;;;5117911;27;20536;-77
2021/05/10 03:39:36;;;;;;;8.03;3.60;;;15.10;1.00;;;;;;5116576;27;20410;-77
2021/05/10 03:42:04;;;;;;;6.30;3.70;;;15.10;1.00;;;;;;5113386;27;20495;-77
2021/05/10 03:44:30;;;;;;;5.77;3.17;;;15.00;1.00;;;;;;5125346;27;20451;-77
2021/05/10 03:47:07;;;;;;;6.90;3.33;;;15.00;1.00;;;;;;5120192;27;20488;-78
2021/05/10 03:49:34;;;;;;;8.63;3.03;;;14.90;1.00;;;;;;5144424;27;20436;-77
2021/05/10 03:52:01;;;;;;;8.90;4.30;;;15.00;1.00;;;;;;5138903;27;20418;-78
2021/05/10 03:54:27;;;;;;;5.67;3.10;;;15.00;1.00;;;;;;5145893;27;20418;-77
2021/05/10 03:56:54;;;;;;;5.60;3.30;;;14.90;1.00;;;;;;5139283;27;20498;-76
2021/05/10 03:59:20;;;;;;;5.77;3.23;;;14.90;1.00;;;;;;5143682;27;20399;-77
2021/05/10 04:01:46;;;;;;;5.40;4.37;;;14.90;1.00;;;;;;5145173;27;20390;-76
2021/05/10 04:04:16;;;;;;;8.10;3.87;;;14.90;1.00;;;;;;5140551;27;20433;-75
2021/05/10 04:06:55;;;;;;;5.27;3.50;;;14.90;1.00;;;;;;5121938;27;20469;-78
2021/05/10 04:14:41;;;;;;;3.87;3.57;;;15.00;1.00;;;;;;5072963;27;20429;-78
2021/05/10 04:17:07;;;;;;;2.93;2.53;;;15.00;1.00;;;;;;5117187;27;20817;-79
2021/05/10 04:19:33;;;;;;;3.73;3.00;;;15.00;1.00;;;;;;5122270;27;20456;-79
2021/05/10 04:22:00;;;;;;;3.13;2.27;;;15.00;1.00;;;;;;5116471;27;20429;-80
2021/05/10 04:24:26;;;;;;;3.77;3.20;;;15.10;1.00;;;;;;5126523;27;20441;-80
2021/05/10 04:26:52;;;;;;;6.80;2.87;;;15.10;1.00;;;;;;5124252;27;20530;-79
2021/05/10 04:29:19;;;;;;;10.00;4.67;;;15.10;1.00;;;;;;5119442;27;20437;-79
2021/05/10 04:31:45;;;;;;;5.10;2.70;;;15.10;1.00;;;;;;5122783;27;20563;-78
2021/05/10 04:34:11;;;;;;;3.47;2.30;;;15.00;1.00;;;;;;5117287;27;21215;-79
2021/05/10 04:36:38;;;;;;;3.47;2.70;;;15.00;1.00;;;;;;5121315;27;20471;-77
2021/05/10 04:39:04;;;;;;;5.10;2.93;;;15.10;1.00;;;;;;5119302;27;20467;-79
2021/05/10 04:41:31;;;;;;;4.90;2.90;;;15.00;1.00;;;;;;5123529;27;20424;-79
2021/05/10 04:44:00;;;;;;;4.80;3.30;;;15.10;1.00;;;;;;5122062;27;20952;-78
2021/05/10 04:46:27;;;;;;;7.37;4.90;;;15.20;1.00;;;;;;5126385;27;20450;-76
2021/05/10 04:48:53;;;;;;;3.73;2.77;;;15.20;1.00;;;;;;5121847;27;20453;-79
2021/05/10 04:51:19;;;;;;;4.60;3.00;;;15.30;1.00;;;;;;5124197;27;20498;-81
2021/05/10 04:53:46;;;;;;;3.67;2.37;;;15.30;1.00;;;;;;5125714;27;20464;-79
2021/05/10 04:56:12;;;;;;;6.70;4.20;;;15.40;1.00;;;;;;5128707;27;20477;-77
2021/05/10 04:58:38;;;;;;;3.33;2.80;;;15.40;1.00;;;;;;5119572;27;20511;-79
2021/05/10 05:01:04;;;;;;;4.70;2.80;;;15.50;1.00;;;;;;5115326;27;20521;-79
2021/05/10 05:03:31;;;;;;;4.37;2.77;;;15.60;1.00;;;;;;5115848;27;20445;-80
2021/05/10 05:05:58;;;;;;;2.73;2.50;;;15.60;1.00;;;;;;5118137;27;20566;-80
2021/05/10 05:08:24;;;;;;;3.80;2.67;;;15.70;1.00;;;;;;5122790;27;20401;-77
2021/05/10 05:10:50;;;;;;;4.10;2.90;;;15.80;1.00;;;;;;5109530;27;20445;-76
2021/05/10 05:13:21;;;;;;;2.90;2.60;;;15.80;1.00;;;;;;5112470;27;20575;-76
2021/05/10 05:15:47;;;;;;;5.60;3.10;;;16.00;1.00;;;;;;5115275;27;20481;-76
2021/05/10 05:18:14;;;;;;;2.90;2.30;;;16.00;1.00;;;;;;5126072;27;20448;-76
2021/05/10 05:20:41;;;;;;;4.53;2.83;;;16.20;1.00;;;;;;5115218;27;20493;-76
2021/05/10 05:23:17;;;;;;;3.97;2.80;;;16.30;1.00;;;;;;5120356;27;20462;-77
2021/05/10 05:25:43;;;;;;;3.00;2.00;;;16.30;1.00;;;;;;5116153;27;20428;-77
2021/05/10 05:28:10;;;;;;;2.83;2.30;;;16.50;1.00;;;;;;5114739;27;20456;-75
2021/05/10 05:30:36;;;;;;;5.63;2.73;;;16.50;1.00;;;;;;5118887;27;20511;-75
2021/05/10 05:33:03;;;;;;;4.37;2.50;;;16.60;1.00;;;;;;5120296;27;20454;-77
2021/05/10 05:35:29;;;;;;;5.00;3.47;;;16.60;1.00;;;;;;5122388;27;20976;-77
2021/05/10 05:37:56;;;;;;;3.20;2.90;;;16.70;1.00;;;;;;5120724;27;21116;-81
2021/05/10 05:40:22;;;;;;;3.20;2.50;;;16.80;1.00;;;;;;5126467;27;20462;-78
2021/05/10 05:42:49;;;;;;;3.27;2.43;;;17.00;1.00;;;;;;5115439;27;20431;-76
2021/05/10 05:45:15;;;;;;;2.70;2.10;;;17.10;1.00;;;;;;5132812;27;20554;-76
2021/05/10 05:47:41;;;;;;;3.60;2.50;;;17.20;1.00;;;;;;5133559;27;20446;-78
2021/05/10 05:50:09;;;;;;;2.70;2.47;;;17.30;1.00;;;;;;5123595;27;20466;-78
2021/05/10 05:52:36;;;;;;;4.30;2.50;;;17.30;1.00;;;;;;5125729;27;20491;-78
2021/05/10 05:55:03;;;;;;;4.70;2.60;;;17.40;1.00;;;;;;5127265;27;20467;-78
2021/05/10 05:57:29;;;;;;;3.40;2.60;;;17.40;1.00;;;;;;5142253;27;20470;-78
2021/05/10 05:59:57;;;;;;;3.17;2.87;;;17.50;1.00;;;;;;5134621;27;21482;-78
2021/05/10 06:02:24;;;;;;;2.83;2.37;;;17.60;1.00;;;;;;5141217;27;21303;-77
2021/05/10 06:04:50;;;;;;;2.47;2.13;;;17.70;1.00;;;;;;5138044;27;20530;-79
2021/05/10 06:07:16;;;;;;;3.20;2.70;;;17.70;1.00;;;;;;5139106;27;20492;-77
2021/05/10 06:09:42;;;;;;;7.00;2.83;;;17.80;1.00;;;;;;5133743;27;20408;-78
2021/05/10 06:12:10;;;;;;;4.10;2.60;;;17.80;1.00;;;;;;5124671;27;20475;-75
2021/05/10 06:14:37;;;;;;;2.20;2.00;;;17.80;1.00;;;;;;5124735;27;20493;-76
2021/05/10 06:17:03;;;;;;;3.10;2.90;;;17.90;1.00;;;;;;5117423;27;20457;-76
2021/05/10 06:19:30;;;;;;;4.60;2.87;;;18.20;1.00;;;;;;5119371;27;20455;-77
2021/05/10 06:21:56;;;;;;;4.80;2.40;;;18.30;1.00;;;;;;5116206;27;20475;-76
2021/05/10 06:24:23;;;;;;;4.17;2.60;;;18.30;1.00;;;;;;5117856;27;20479;-77
2021/05/10 06:26:49;;;;;;;6.07;2.70;;;18.40;1.00;;;;;;5117707;27;20455;-76
2021/05/10 06:29:17;;;;;;;3.37;2.10;;;18.50;1.00;;;;;;5121526;27;20446;-76
2021/05/10 06:31:43;;;;;;;5.63;3.43;;;18.50;1.00;;;;;;5116875;27;20876;-77
2021/05/10 06:34:09;;;;;;;3.20;2.00;;;18.60;1.00;;;;;;5121075;27;20457;-77
2021/05/10 06:36:35;;;;;;;4.77;2.70;;;18.70;1.00;;;;;;5122992;27;20535;-77
2021/05/10 06:39:01;;;;;;;2.70;2.10;;;18.80;1.00;;;;;;5117522;27;20444;-77
2021/05/10 06:41:28;;;;;;;2.90;2.60;;;19.00;1.00;;;;;;5123073;27;20448;-77
2021/05/10 06:43:54;;;;;;;3.20;2.77;;;19.00;1.00;;;;;;5115884;27;20467;-76
2021/05/10 06:46:23;;;;;;;2.47;2.07;;;19.10;1.00;;;;;;5115017;27;20461;-76
2021/05/10 06:48:49;;;;;;;5.40;2.50;;;19.30;1.00;;;;;;5112681;27;20462;-76
2021/05/10 06:51:15;;;;;;;3.20;2.20;;;19.40;1.00;;;;;;5119743;27;20528;-78
2021/05/10 06:53:41;;;;;;;3.17;2.63;;;19.40;1.00;;;;;;5115103;27;20472;-77
2021/05/10 06:56:07;;;;;;;4.80;2.30;;;19.50;1.00;;;;;;5127245;27;20658;-77
2021/05/10 06:58:33;;;;;;;4.77;2.30;;;19.40;1.00;;;;;;5122508;27;20499;-79
2021/05/10 07:01:00;;;;;;;4.90;2.63;;;19.50;1.00;;;;;;5117349;27;21117;-77
2021/05/10 07:03:27;;;;;;;4.13;2.83;;;19.60;1.00;;;;;;5122184;27;20722;-77
2021/05/10 07:05:53;;;;;;;4.70;2.83;;;19.70;1.00;;;;;;5127885;27;20455;-77
2021/05/10 07:08:19;;;;;;;3.30;2.40;;;19.80;1.00;;;;;;5121108;27;20701;-77
2021/05/10 07:10:47;;;;;;;3.67;2.70;;;19.80;1.00;;;;;;5118973;27;20452;-76
2021/05/10 07:13:14;;;;;;;2.60;2.40;;;19.90;1.00;;;;;;5119426;27;21095;-77
2021/05/10 07:15:40;;;;;;;2.70;2.50;;;20.10;1.00;;;;;;5122537;27;20451;-77
2021/05/10 07:18:08;;;;;;;4.10;2.40;;;20.20;1.00;;;;;;5123787;27;20464;-78
2021/05/10 07:20:37;;;;;;;5.13;2.57;;;20.30;1.00;;;;;;5120296;27;20940;-77
2021/05/10 07:23:05;;;;;;;2.63;2.33;;;20.40;1.00;;;;;;5119663;27;20548;-77
2021/05/10 07:25:31;;;;;;;3.53;2.20;;;20.50;1.00;;;;;;5119517;27;20479;-76
2021/05/10 07:27:58;;;;;;;2.70;2.03;;;20.50;1.00;;;;;;5120544;27;20514;-77
2021/05/10 07:30:24;;;;;;;2.27;2.00;;;20.70;1.00;;;;;;5128606;27;20734;-76
2021/05/10 07:32:50;;;;;;;3.50;2.27;;;20.80;1.00;;;;;;5125406;27;20457;-76
2021/05/10 07:35:17;;;;;;;3.07;2.27;;;20.90;1.00;;;;;;5120777;27;20439;-77
2021/05/10 07:37:44;;;;;;;2.90;2.13;;;20.90;1.00;;;;;;5113080;27;20576;-79
2021/05/10 07:40:12;;;;;;;3.73;2.40;;;20.90;1.00;;;;;;5117058;27;20448;-77
2021/05/10 07:42:38;;;;;;;2.80;2.43;;;20.90;1.00;;;;;;5121276;27;20450;-77
2021/05/10 07:45:06;;;;;;;3.23;2.07;;;21.00;1.00;;;;;;5118791;27;20457;-77
2021/05/10 07:47:32;;;;;;;3.30;2.60;;;21.10;1.00;;;;;;5121693;27;20445;-77
2021/05/10 07:49:58;;;;;;;2.63;2.10;;;21.10;1.00;;;;;;5124108;27;21302;-77
2021/05/10 07:52:25;;;;;;;4.40;2.60;;;21.10;1.00;;;;;;5128478;27;20456;-81
2021/05/10 07:54:52;;;;;;;3.40;2.30;;;21.00;1.00;;;;;;5135372;27;20410;-82
2021/05/10 07:57:23;;;;;;;3.13;2.50;;;21.10;1.00;;;;;;5140432;27;20464;-81
2021/05/10 07:59:50;;;;;;;2.90;2.20;;;21.10;1.00;;;;;;5141102;27;20450;-80
2021/05/10 08:02:19;;;;;;;4.83;2.50;;;21.30;1.00;;;;;;5127987;27;20459;-81
2021/05/10 08:04:45;;;;;;;2.50;2.30;;;21.50;1.00;;;;;;5125004;27;20489;-83
2021/05/10 08:07:12;;;;;;;3.20;2.63;;;21.70;1.00;;;;;;5129659;27;20468;-82
2021/05/10 08:09:39;;;;;;;4.77;2.40;;;21.90;1.00;;;;;;5122131;27;21506;-82
2021/05/10 08:12:09;;;;;;;2.77;2.33;;;22.10;1.00;;;;;;5125694;27;20618;-80
2021/05/10 08:14:35;;;;;;;3.73;2.30;;;22.20;1.00;;;;;;5124572;27;20567;-81
2021/05/10 08:17:02;;;;;;;2.43;2.23;;;22.30;1.00;;;;;;5125483;27;20451;-81
2021/05/10 08:19:29;;;;;;;3.60;2.20;;;22.30;1.00;;;;;;5125725;27;20438;-79
2021/05/10 08:21:57;;;;;;;3.00;2.80;;;22.30;1.00;;;;;;5121054;27;20587;-77
2021/05/10 08:24:25;;;;;;;3.83;2.70;;;22.40;1.00;;;;;;5129678;27;20419;-78
2021/05/10 08:26:52;;;;;;;3.27;2.97;;;22.50;1.00;;;;;;5122946;27;20433;-79
2021/05/10 08:29:20;;;;;;;6.00;4.47;;;22.50;1.00;;;;;;5123754;27;20403;-78
2021/05/10 08:31:46;;;;;;;3.17;2.30;;;22.60;1.00;;;;;;5118843;27;20427;-80
2021/05/10 08:34:12;;;;;;;3.73;2.50;;;22.80;1.00;;;;;;5125265;27;20454;-79
2021/05/10 08:36:38;;;;;;;2.93;2.63;;;22.90;1.00;;;;;;5123824;27;20431;-79
2021/05/10 08:39:08;;;;;;;5.50;2.70;;;22.90;1.00;;;;;;5121622;27;20419;-79
2021/05/10 08:41:34;;;;;;;2.80;2.10;;;23.00;1.00;;;;;;5124178;27;20463;-79
2021/05/10 08:44:04;;;;;;;2.73;2.10;;;23.10;1.00;;;;;;5123563;27;20513;-78
2021/05/10 08:46:33;;;;;;;2.60;2.40;;;23.20;1.00;;;;;;5121138;27;20495;-80
2021/05/10 08:48:59;;;;;;;3.03;2.53;;;23.20;1.00;;;;;;5120828;27;20439;-79
2021/05/10 08:51:26;;;;;;;4.90;2.57;;;23.20;1.00;;;;;;5122432;27;20798;-80
2021/05/10 08:53:53;;;;;;;2.70;2.50;;;23.20;1.00;;;;;;5124240;27;20488;-81
2021/05/10 08:56:19;;;;;;;2.67;2.03;;;23.30;1.00;;;;;;5122896;27;20597;-78
2021/05/10 08:58:47;;;;;;;2.83;2.50;;;23.40;1.00;;;;;;5123616;27;20867;-80
2021/05/10 09:01:15;;;;;;;2.80;2.55;;;23.50;1.00;;;;;;5126565;27;20428;-79
2021/05/10 09:03:44;;;;;;;2.10;1.90;;;23.70;1.00;;;;;;5118603;27;20981;-78
2021/05/10 09:06:12;;;;;;;2.67;1.67;;;23.80;1.00;;;;;;5120192;27;20445;-77
2021/05/10 09:08:40;;;;;;;3.37;2.57;;;24.00;1.00;;;;;;5117600;27;20971;-79
2021/05/10 09:11:11;;;;;;;2.80;2.50;;;24.00;1.00;;;;;;5125452;27;20445;-78
2021/05/10 09:13:40;;;;;;;5.00;3.40;;;24.20;1.00;;;;;;5124057;27;20440;-78
2021/05/10 09:16:09;;;;;;;3.70;2.47;;;24.30;1.00;;;;;;5137687;27;20424;-77
2021/05/10 09:18:36;;;;;;;2.23;2.00;;;24.50;1.00;;;;;;5133494;27;20521;-78
2021/05/10 09:21:14;;;;;;;4.40;2.87;;;24.70;1.00;;;;;;5141032;27;21195;-78
2021/05/10 09:23:40;;;;;;;4.03;2.55;;;24.90;1.00;;;;;;5138202;27;20377;-77
2021/05/10 09:26:07;;;;;;;4.63;3.40;;;25.30;1.00;;;;;;5145207;27;20308;-77
2021/05/10 09:28:38;;;;;;;2.60;2.40;;;26.00;1.00;;;;;;5138727;27;20457;-77
2021/05/10 09:31:08;;;;;;;2.85;2.40;;;27.10;1.00;;;;;;5135983;27;20427;-78
2021/05/10 09:33:40;;;;;;;3.93;2.47;;;28.50;1.00;;;;;;5132242;27;20274;-78
2021/05/10 09:36:07;;;;;;;4.17;2.27;;;29.90;1.00;;;;;;5129299;27;20417;-79
2021/05/10 09:38:36;;;;;;;3.03;2.63;;;31.00;1.00;;;;;;5135391;27;20414;-77
2021/05/10 09:41:03;;;;;;;3.80;2.73;;;31.60;1.00;;;;;;5135298;27;20446;-79
2021/05/10 09:43:33;;;;;;;2.80;2.60;;;32.10;1.00;;;;;;5134575;27;20432;-78
2021/05/10 09:46:03;;;;;;;4.50;2.43;;;32.30;1.00;;;;;;5134326;27;20440;-78
2021/05/10 09:48:32;;;;;;;3.30;3.00;;;32.60;1.00;;;;;;5135112;27;20421;-78
2021/05/10 09:51:01;;;;;;;2.25;2.00;;;33.30;1.00;;;;;;5136485;27;20497;-78
2021/05/10 09:53:38;;;;;;;2.43;2.23;;;33.90;1.00;;;;;;5138250;27;20231;-78
2021/05/10 09:56:08;;;;;;;2.70;2.47;;;34.40;1.00;;;;;;5137263;27;20546;-79
2021/05/10 09:58:40;;;;;;;5.47;3.20;;;34.40;1.00;;;;;;5133277;27;20406;-77
2021/05/10 10:01:47;;;;;;;3.80;2.47;;;34.60;1.00;;;;;;5127900;27;20441;-80
2021/05/10 10:04:23;;;;;;;5.17;2.20;;;35.50;1.00;;;;;;5120084;27;20460;-79
2021/05/10 10:06:49;;;;;;;2.03;1.93;;;35.00;1.00;;;;;;5128533;27;20460;-79
2021/05/10 10:09:16;;;;;;;3.00;1.90;;;34.30;1.00;;;;;;5128253;27;20503;-78
2021/05/10 10:11:46;;;;;;;2.40;1.93;;;34.00;1.00;;;;;;5117734;27;20555;-78
2021/05/10 10:14:34;;;;;;;5.53;2.90;;;33.60;1.00;;;;;;5125534;27;20499;-79
2021/05/10 10:17:00;;;;;;;4.22;2.60;;;33.50;1.00;;;;;;5125464;27;20984;-79
2021/05/10 10:19:47;;;;;;;3.03;2.47;;;33.30;1.00;;;;;;5131347;27;20646;-81
2021/05/10 10:22:41;;;;;;;4.50;2.37;;;33.70;1.00;;;;;;5125238;27;20448;-79
2021/05/10 10:25:31;;;;;;;5.00;2.47;;;34.60;1.00;;;;;;5121237;27;20457;-78
2021/05/10 10:27:59;;;;;;;2.78;2.30;;;35.40;1.00;;;;;;5118682;27;20409;-79
2021/05/10 10:30:27;;;;;;;2.67;2.20;;;35.60;1.00;;;;;;5131873;27;20230;-79
2021/05/10 10:32:58;;;;;;;2.80;2.53;;;35.50;1.00;;;;;;5128232;27;20417;-78
2021/05/10 10:35:25;;;;;;;3.10;2.80;;;36.00;1.00;;;;;;5127218;27;20481;-77
2021/05/10 10:37:52;;;;;;;2.20;2.03;;;36.50;1.00;;;;;;5126531;27;20417;-78
2021/05/10 10:40:21;;;;;;;3.63;2.33;;;37.00;1.00;;;;;;5130705;27;20545;-79
2021/05/10 10:42:48;;;;;;;3.63;2.53;;;37.00;1.00;;;;;;5119826;27;20478;-80
2021/05/10 10:45:22;;;;;;;2.30;2.20;;;36.90;1.00;;;;;;5120212;27;20509;-78
2021/05/10 10:47:53;;;;;;;3.10;2.50;;;36.60;1.00;;;;;;5120790;27;20420;-78
2021/05/10 10:50:20;;;;;;;3.23;2.80;;;36.40;1.00;;;;;;5123305;27;20445;-77
2021/05/10 10:52:49;;;;;;;4.03;2.50;;;36.40;1.00;;;;;;5124345;27;20548;-79
2021/05/10 10:55:22;;;;;;;3.60;2.53;;;37.30;1.00;;;;;;5123546;27;20493;-77
2021/05/10 10:57:49;;;;;;;2.53;1.90;;;37.90;1.00;;;;;;5128466;27;20507;-78
2021/05/10 11:00:18;;;;;;;4.30;2.57;;;38.00;1.00;;;;;;5124377;27;20441;-78
2021/05/10 11:02:46;;;;;;;2.83;2.47;;;37.40;1.00;;;;;;5122828;27;21112;-77
2021/05/10 11:05:15;;;;;;;3.23;2.90;;;37.80;1.00;;;;;;5120107;27;20497;-77
2021/05/10 11:07:53;;;;;;;2.60;2.40;;;38.50;1.00;;;;;;5122860;27;20401;-77
2021/05/10 11:10:48;;;;;;;2.50;2.30;;;38.70;1.00;;;;;;5122275;27;20566;-78
2021/05/10 11:13:34;;;;;;;4.30;2.37;;;39.10;1.00;;;;;;5128973;27;21325;-77
2021/05/10 11:16:00;;;;;;;1.87;1.67;;;38.90;1.00;;;;;;5122367;27;21401;-78
2021/05/10 11:18:50;;;;;;;3.40;2.07;;;38.80;1.00;;;;;;5123944;27;20503;-78
2021/05/10 11:21:38;;;;;;;2.17;1.97;;;38.80;1.00;;;;;;5119336;27;20446;-78
2021/05/10 11:24:09;;;;;;;3.13;2.50;;;39.30;1.00;;;;;;5113656;27;20464;-78
2021/05/10 11:26:38;;;;;;;3.00;2.70;;;39.60;1.00;;;;;;5123813;27;20442;-79
2021/05/10 11:29:06;;;;;;;3.53;2.20;;;39.80;1.00;;;;;;5120335;27;20464;-79
2021/05/10 11:31:35;;;;;;;2.58;2.38;;;40.40;1.00;;;;;;5116739;27;20885;-76
2021/05/10 11:34:11;;;;;;;2.23;2.07;;;39.70;1.00;;;;;;5115665;27;20223;-77
2021/05/10 11:36:39;;;;;;;2.40;2.00;;;40.40;1.00;;;;;;5119878;27;20446;-77
2021/05/10 11:39:09;;;;;;;2.97;2.28;;;40.90;1.00;;;;;;5115594;27;21346;-77
2021/05/10 11:41:37;;;;;;;1.83;1.73;;;40.90;1.00;;;;;;5123114;27;23471;-77
2021/05/10 11:44:06;;;;;;;2.77;2.20;;;40.70;1.00;;;;;;5113852;27;20470;-76
2021/05/10 11:46:37;;;;;;;2.70;2.10;;;40.60;1.00;;;;;;5120881;27;20480;-77
2021/05/10 11:49:04;;;;;;;3.80;2.00;;;40.90;1.00;;;;;;5121443;27;20480;-77
2021/05/10 11:51:33;;;;;;;2.73;2.53;;;41.50;1.00;;;;;;5116975;27;20448;-78
2021/05/10 11:54:03;;;;;;;2.43;2.20;;;41.80;1.00;;;;;;5119980;27;20452;-78
2021/05/10 11:56:33;;;;;;;3.40;3.10;;;42.50;1.00;;;;;;5118270;27;20452;-78
2021/05/10 11:59:09;;;;;;;4.57;2.23;;;42.70;1.00;;;;;;5123182;27;20464;-77
2021/05/10 12:01:37;;;;;;;2.43;2.23;;;42.80;1.00;;;;;;5119693;27;20497;-77
2021/05/10 12:04:25;;;;;;;2.23;2.03;;;43.40;1.00;;;;;;5123530;27;21329;-77
2021/05/10 12:06:52;;;;;;;3.83;2.10;;;42.40;1.00;;;;;;5118176;27;20463;-77
2021/05/10 12:09:35;;;;;;;4.80;2.13;;;41.50;1.00;;;;;;5128187;27;20218;-77
2021/05/10 12:12:03;;;;;;;3.63;2.50;;;41.20;1.00;;;;;;5116309;27;20562;-77
2021/05/10 12:14:31;;;;;;;2.57;2.37;;;41.50;1.00;;;;;;5128984;27;20493;-78
2021/05/10 12:17:05;;;;;;;2.63;2.30;;;41.90;1.00;;;;;;5127798;27;20421;-78
2021/05/10 12:19:52;;;;;;;4.93;2.47;;;42.00;1.00;;;;;;5121791;27;20457;-78
2021/05/10 12:22:20;;;;;;;3.77;2.23;;;42.10;1.00;;;;;;5133262;27;20460;-77
2021/05/10 12:25:01;;;;;;;1.97;1.63;;;42.40;1.00;;;;;;5115165;27;20487;-77
2021/05/10 12:27:31;;;;;;;3.60;1.90;;;42.30;1.00;;;;;;5121982;27;20484;-78
2021/05/10 12:29:59;;;;;;;2.53;1.90;;;42.00;1.00;;;;;;5122168;27;21304;-78
2021/05/10 12:32:25;;;;;;;2.50;1.63;;;41.60;1.00;;;;;;5130663;27;21267;-78
2021/05/10 12:34:52;;;;;;;2.87;2.10;;;40.60;1.00;;;;;;5119978;27;20566;-78
2021/05/10 12:37:19;;;;;;;4.30;1.60;;;41.20;1.00;;;;;;5124237;27;20563;-79
2021/05/10 12:39:46;;;;;;;5.27;2.00;;;41.60;1.00;;;;;;5121896;27;20429;-78
2021/05/10 12:42:18;;;;;;;2.27;2.07;;;42.20;1.00;;;;;;5121870;27;20430;-78
2021/05/10 12:44:58;;;;;;;2.17;1.90;;;42.30;1.00;;;;;;5125071;27;20493;-77
2021/05/10 12:47:56;;;;;;;2.30;2.10;;;42.30;1.00;;;;;;5113645;27;20223;-77
2021/05/10 12:50:36;;;;;;;3.20;2.17;;;40.90;1.00;;;;;;5042625;28;21027;-78
2021/05/10 12:53:03;;;;;;;2.50;1.80;;;42.00;1.00;;;;;;5112804;27;20832;-77
2021/05/10 12:55:31;;;;;;;2.00;1.80;;;42.10;1.00;;;;;;5127070;27;20431;-77
2021/05/10 12:57:58;;;;;;;2.20;2.10;;;42.50;1.00;;;;;;5128104;27;23354;-77
2021/05/10 13:00:35;;;;;;;2.00;1.80;;;42.70;1.00;;;;;;5129138;27;20560;-79
2021/05/10 13:03:02;;;;;;;4.30;1.77;;;42.80;1.00;;;;;;5125940;27;20446;-78
2021/05/10 13:05:36;;;;;;;1.90;1.80;;;43.00;1.00;;;;;;5122819;27;20445;-78
2021/05/10 13:08:05;;;;;;;3.33;1.93;;;42.60;1.00;;;;;;5122161;27;21435;-78
2021/05/10 13:10:31;;;;;;;5.60;2.20;;;42.20;1.00;;;;;;5124613;27;20416;-78
2021/05/10 13:12:57;;;;;;;2.93;2.10;;;42.80;1.00;;;;;;5124090;27;20462;-80
2021/05/10 13:15:29;;;;;;;3.57;2.60;;;41.20;1.00;;;;;;5134417;27;20528;-80
2021/05/10 13:18:09;;;;;;;2.67;1.80;;;40.40;1.00;;;;;;5133884;27;20468;-79